Time;durP1;ratioP1;P1;durP2;ratioP2;P2;SDS_P1;SDS_P2;PMS_P1;PMS_P2;Temp;Humidity;BMP_temperature;BMP_pressure;BME280_temperature;BME280_humidity;BME280_pressure;Samples;Min_cycle;Max_cycle;Signal;HPM_P1;HPM_P2
2022/12/29 00:01:45;;;;;;;4.70;4.60;;;8.10;1.00;;;;;;6278915;28;20228;-55
2022/12/29 00:04:50;;;;;;;5.00;4.70;;;8.10;1.00;;;;;;6304799;28;20236;-55
2022/12/29 00:07:53;;;;;;;5.40;5.20;;;8.10;1.00;;;;;;6294871;28;20629;-56
2022/12/29 00:10:56;;;;;;;4.83;4.63;;;8.20;1.00;;;;;;6308865;28;20237;-55
2022/12/29 00:17:29;;;;;;;5.23;4.93;;;8.20;1.00;;;;;;6292497;28;20373;-56
2022/12/29 00:44:10;;;;;;;4.70;4.50;;;8.30;1.00;;;;;;6293013;28;20255;-56
2022/12/29 00:47:13;;;;;;;4.00;3.80;;;8.40;1.00;;;;;;6275756;28;20298;-54
2022/12/29 00:50:16;;;;;;;4.03;3.93;;;8.40;1.00;;;;;;6275482;28;20721;-55
2022/12/29 00:53:19;;;;;;;4.13;3.87;;;8.40;1.00;;;;;;6283453;28;20367;-55
2022/12/29 00:56:22;;;;;;;4.23;4.03;;;8.40;1.00;;;;;;6282715;28;20612;-55
2022/12/29 00:59:25;;;;;;;4.67;4.33;;;8.40;1.00;;;;;;6283229;28;20264;-56
2022/12/29 01:02:29;;;;;;;4.60;4.30;;;8.40;1.00;;;;;;6302494;28;20678;-55
2022/12/29 01:05:37;;;;;;;4.67;4.20;;;8.40;1.00;;;;;;6298097;28;20311;-56
2022/12/29 01:08:40;;;;;;;4.70;4.50;;;8.30;1.00;;;;;;6300865;28;20233;-55
2022/12/29 01:11:42;;;;;;;4.60;4.40;;;8.40;1.00;;;;;;6293749;28;20604;-55
2022/12/29 01:14:44;;;;;;;4.60;4.30;;;8.40;1.00;;;;;;6276350;28;20288;-56
2022/12/29 01:17:49;;;;;;;4.10;3.80;;;8.30;1.00;;;;;;6282696;28;20275;-56
2022/12/29 01:20:59;;;;;;;4.00;3.90;;;8.30;1.00;;;;;;6283279;28;20318;-56
2022/12/29 01:24:03;;;;;;;3.57;3.57;;;8.30;1.00;;;;;;6282105;28;20702;-56
2022/12/29 01:27:05;;;;;;;3.83;3.70;;;8.30;1.00;;;;;;6282763;28;20244;-56
2022/12/29 01:30:10;;;;;;;3.77;3.50;;;8.30;1.00;;;;;;6282473;28;20730;-58
2022/12/29 01:33:13;;;;;;;4.20;3.90;;;8.30;1.00;;;;;;6294537;28;20229;-57
2022/12/29 01:36:18;;;;;;;4.03;3.93;;;8.40;1.00;;;;;;6302767;28;20388;-59
2022/12/29 01:39:21;;;;;;;4.77;3.67;;;8.30;1.00;;;;;;6289222;28;21063;-56
2022/12/29 01:42:26;;;;;;;3.87;3.77;;;8.40;1.00;;;;;;6300110;28;20242;-55
2022/12/29 01:45:29;;;;;;;4.07;3.97;;;8.40;1.00;;;;;;6294810;28;20240;-56
2022/12/29 01:48:32;;;;;;;4.13;3.87;;;8.30;1.00;;;;;;6307308;28;20241;-57
2022/12/29 01:51:41;;;;;;;4.00;3.90;;;8.30;1.00;;;;;;6282891;28;20237;-53
2022/12/29 01:54:51;;;;;;;3.80;3.70;;;8.30;1.00;;;;;;6282092;28;20229;-56
2022/12/29 01:57:59;;;;;;;3.93;3.73;;;8.30;1.00;;;;;;6281119;28;20234;-55
2022/12/29 02:01:02;;;;;;;3.73;3.63;;;8.30;1.00;;;;;;6281909;28;20241;-55
2022/12/29 02:04:05;;;;;;;3.80;3.70;;;8.30;1.00;;;;;;6281357;28;20298;-51
2022/12/29 02:07:16;;;;;;;4.07;3.87;;;8.20;1.00;;;;;;6284034;28;20236;-55
2022/12/29 02:10:21;;;;;;;4.43;4.30;;;8.20;1.00;;;;;;6304605;28;20362;-55
2022/12/29 02:13:25;;;;;;;4.57;4.17;;;8.30;1.00;;;;;;6294829;28;20725;-56
2022/12/29 02:16:37;;;;;;;4.50;4.30;;;8.20;1.00;;;;;;6300280;28;20695;-58
2022/12/29 02:20:05;;;;;;;4.47;4.27;;;8.20;1.00;;;;;;6305899;28;20236;-55
2022/12/29 02:23:28;;;;;;;4.10;3.90;;;8.10;1.00;;;;;;6275702;28;20229;-56
2022/12/29 02:26:45;;;;;;;4.00;3.87;;;8.10;1.00;;;;;;6273752;28;20239;-57
2022/12/29 02:30:05;;;;;;;4.30;4.00;;;8.10;1.00;;;;;;6281989;28;20241;-55
2022/12/29 02:33:20;;;;;;;5.17;4.87;;;8.20;1.00;;;;;;6293086;28;20233;-56
2022/12/29 02:36:30;;;;;;;4.53;4.30;;;8.20;1.00;;;;;;6272813;28;20237;-56
2022/12/29 02:39:38;;;;;;;4.00;3.80;;;8.20;1.00;;;;;;6292919;28;20285;-56
2022/12/29 02:42:49;;;;;;;3.87;3.80;;;8.20;1.00;;;;;;6311103;28;20615;-56
2022/12/29 02:45:57;;;;;;;3.83;3.60;;;8.30;1.00;;;;;;6311350;28;20233;-56
2022/12/29 02:49:09;;;;;;;4.27;4.07;;;8.30;1.00;;;;;;6309430;28;20618;-55
2022/12/29 02:52:17;;;;;;;4.33;4.23;;;8.40;1.00;;;;;;6311376;28;20244;-56
2022/12/29 02:55:19;;;;;;;4.40;4.10;;;8.40;1.00;;;;;;6296808;28;20367;-57
2022/12/29 02:58:24;;;;;;;4.30;4.00;;;8.40;1.00;;;;;;6285380;28;20233;-61
2022/12/29 03:02:16;;;;;;;4.30;4.20;;;8.60;1.00;;;;;;6288247;28;20233;-55
2022/12/29 03:05:32;;;;;;;3.90;3.70;;;8.60;1.00;;;;;;6296141;28;20225;-56
2022/12/29 03:08:44;;;;;;;4.07;3.87;;;8.70;1.00;;;;;;6301097;27;20233;-55
2022/12/29 03:18:54;;;;;;;5.70;3.50;;;8.90;1.00;;;;;;6284629;28;20226;-55
2022/12/29 03:25:26;;;;;;;3.63;3.53;;;9.10;1.00;;;;;;6284589;28;20252;-57
2022/12/29 03:28:34;;;;;;;3.80;3.70;;;9.10;1.00;;;;;;6284183;28;20248;-55
2022/12/29 03:31:39;;;;;;;4.07;3.80;;;9.10;1.00;;;;;;6281600;28;20606;-54
2022/12/29 03:34:43;;;;;;;3.90;3.70;;;9.20;1.00;;;;;;6306489;28;20225;-55
2022/12/29 03:37:53;;;;;;;3.43;3.23;;;9.20;1.00;;;;;;6302566;28;20232;-58
2022/12/29 03:40:59;;;;;;;3.30;3.20;;;9.20;1.00;;;;;;6309859;28;20236;-55
2022/12/29 03:44:02;;;;;;;3.33;3.23;;;9.20;1.00;;;;;;6279272;28;20586;-57
2022/12/29 03:47:06;;;;;;;3.40;3.30;;;9.20;1.00;;;;;;6279366;28;20398;-55
2022/12/29 03:50:09;;;;;;;3.27;3.17;;;9.20;1.00;;;;;;6281353;28;20597;-57
2022/12/29 03:53:14;;;;;;;3.40;3.30;;;9.20;1.00;;;;;;6269004;28;20650;-57
2022/12/29 03:56:17;;;;;;;3.67;3.57;;;9.20;1.00;;;;;;6283786;28;20240;-59
2022/12/29 03:59:20;;;;;;;3.67;3.57;;;9.20;1.00;;;;;;6309798;28;20249;-56
2022/12/29 04:02:23;;;;;;;3.00;3.00;;;9.20;1.00;;;;;;6310159;28;20420;-56
2022/12/29 04:05:26;;;;;;;3.57;3.37;;;9.20;1.00;;;;;;6284591;28;20240;-57
2022/12/29 04:08:31;;;;;;;3.20;3.20;;;9.30;1.00;;;;;;6306242;27;20232;-56
2022/12/29 04:11:34;;;;;;;3.47;3.37;;;9.30;1.00;;;;;;6287701;28;20229;-55
2022/12/29 04:14:37;;;;;;;3.57;3.50;;;9.30;1.00;;;;;;6276947;28;20220;-55
2022/12/29 04:17:40;;;;;;;3.80;3.70;;;9.40;1.00;;;;;;6275172;28;20233;-55
2022/12/29 04:21:02;;;;;;;3.27;3.17;;;9.40;1.00;;;;;;6284436;28;20248;-56
2022/12/29 04:24:07;;;;;;;3.53;3.33;;;9.40;1.00;;;;;;6294992;28;20236;-56
2022/12/29 04:27:10;;;;;;;3.30;3.30;;;9.50;1.00;;;;;;6309201;28;20294;-55
2022/12/29 04:30:13;;;;;;;3.40;3.40;;;9.50;1.00;;;;;;6308991;28;20585;-55
2022/12/29 04:33:16;;;;;;;3.80;3.60;;;9.50;1.00;;;;;;6274218;28;20857;-57
2022/12/29 04:36:21;;;;;;;3.33;3.20;;;9.50;1.00;;;;;;6278939;28;20352;-56
2022/12/29 04:39:34;;;;;;;3.20;3.10;;;9.60;1.00;;;;;;6285729;28;20241;-56
2022/12/29 04:42:37;;;;;;;3.50;3.40;;;9.50;1.00;;;;;;6296175;28;20238;-55
2022/12/29 04:45:40;;;;;;;4.37;4.17;;;9.50;1.00;;;;;;6296765;28;21021;-57
2022/12/29 04:48:43;;;;;;;3.40;3.30;;;9.60;1.00;;;;;;6301205;28;20240;-56
2022/12/29 04:51:46;;;;;;;3.70;3.60;;;9.60;1.00;;;;;;6297368;28;20647;-56
2022/12/29 04:54:50;;;;;;;3.80;3.70;;;9.60;1.00;;;;;;6300585;28;20474;-56
2022/12/29 04:57:53;;;;;;;3.70;3.60;;;9.60;1.00;;;;;;6302786;28;20684;-55
2022/12/29 05:00:56;;;;;;;3.63;3.63;;;9.60;1.00;;;;;;6303123;28;20733;-55
2022/12/29 05:03:59;;;;;;;4.10;3.70;;;9.60;1.00;;;;;;6303324;28;20237;-55
2022/12/29 05:07:02;;;;;;;3.60;3.50;;;9.60;1.00;;;;;;6276069;28;20760;-56
2022/12/29 05:10:08;;;;;;;3.60;3.50;;;9.60;1.00;;;;;;6286371;28;20233;-56
2022/12/29 05:13:11;;;;;;;3.67;3.63;;;9.70;1.00;;;;;;6293955;28;20237;-56
2022/12/29 05:16:14;;;;;;;3.40;3.10;;;9.60;1.00;;;;;;6291190;28;20229;-55
2022/12/29 05:19:17;;;;;;;3.20;3.10;;;9.70;1.00;;;;;;6288283;28;20244;-56
2022/12/29 05:22:20;;;;;;;3.70;3.27;;;9.70;1.00;;;;;;6279696;28;20290;-55
2022/12/29 05:25:24;;;;;;;3.87;3.67;;;9.70;1.00;;;;;;6291888;28;20251;-57
2022/12/29 05:28:27;;;;;;;3.27;3.23;;;9.80;1.00;;;;;;6298320;28;20374;-56
2022/12/29 05:31:30;;;;;;;3.43;3.43;;;9.90;1.00;;;;;;6306087;28;20228;-56
2022/12/29 05:34:33;;;;;;;3.90;3.80;;;9.90;1.00;;;;;;6296799;28;20244;-55
2022/12/29 05:37:36;;;;;;;3.73;3.63;;;9.90;1.00;;;;;;6279947;28;20316;-55
2022/12/29 05:40:41;;;;;;;3.50;3.40;;;9.90;1.00;;;;;;6281020;28;20725;-54
2022/12/29 05:43:44;;;;;;;3.60;3.50;;;10.00;1.00;;;;;;6283787;28;20364;-56
2022/12/29 05:46:47;;;;;;;3.27;3.20;;;10.00;1.00;;;;;;6289081;28;20237;-56
2022/12/29 05:49:50;;;;;;;3.43;3.30;;;10.00;1.00;;;;;;6304488;28;20243;-56
2022/12/29 05:52:53;;;;;;;3.10;3.10;;;10.00;1.00;;;;;;6299209;28;20237;-55
2022/12/29 05:55:57;;;;;;;3.17;3.07;;;10.00;1.00;;;;;;6285438;28;20230;-55
2022/12/29 05:59:00;;;;;;;3.13;3.03;;;10.00;1.00;;;;;;6304579;28;20366;-55
2022/12/29 06:02:03;;;;;;;3.40;3.30;;;10.10;1.00;;;;;;6304797;28;20366;-55
2022/12/29 06:05:07;;;;;;;3.70;3.60;;;10.20;1.00;;;;;;6293266;28;20324;-56
2022/12/29 06:08:10;;;;;;;3.30;3.20;;;10.20;1.00;;;;;;6301002;28;20613;-56
2022/12/29 06:11:14;;;;;;;3.50;3.20;;;10.30;1.00;;;;;;6305190;28;20235;-56
2022/12/29 06:14:17;;;;;;;3.40;3.30;;;10.40;1.00;;;;;;6306310;28;20244;-56
2022/12/29 06:17:20;;;;;;;3.20;3.10;;;10.40;1.00;;;;;;6314157;28;20278;-55
2022/12/29 06:20:23;;;;;;;3.10;3.00;;;10.40;1.00;;;;;;6308521;28;20243;-57
2022/12/29 06:23:26;;;;;;;3.53;3.33;;;10.40;1.00;;;;;;6285909;28;20240;-57
2022/12/29 06:26:30;;;;;;;3.80;3.20;;;10.40;1.00;;;;;;6296820;28;20236;-55
2022/12/29 06:29:36;;;;;;;3.00;3.00;;;10.50;1.00;;;;;;6287419;28;20240;-55
2022/12/29 06:32:40;;;;;;;3.43;3.33;;;10.40;1.00;;;;;;6301916;28;20643;-55
2022/12/29 06:35:43;;;;;;;3.30;3.20;;;10.50;1.00;;;;;;6292673;28;20225;-55
2022/12/29 06:38:46;;;;;;;3.57;3.40;;;10.50;1.00;;;;;;6299331;28;20246;-56
2022/12/29 06:41:53;;;;;;;3.40;3.30;;;10.60;1.00;;;;;;6304658;28;20736;-56
2022/12/29 06:44:58;;;;;;;3.83;3.73;;;10.60;1.00;;;;;;6292028;28;20224;-56
2022/12/29 06:48:01;;;;;;;3.60;3.30;;;10.60;1.00;;;;;;6304039;28;20749;-55
2022/12/29 06:51:04;;;;;;;3.23;3.13;;;10.60;1.00;;;;;;6312663;28;20266;-55
2022/12/29 06:54:07;;;;;;;3.10;3.00;;;10.60;1.00;;;;;;6313462;27;20258;-56
2022/12/29 06:57:12;;;;;;;2.87;2.80;;;10.60;1.00;;;;;;6312285;28;20500;-55
2022/12/29 07:00:16;;;;;;;3.27;3.17;;;10.60;1.00;;;;;;6303313;27;20482;-56
2022/12/29 07:03:25;;;;;;;2.93;2.90;;;10.60;1.00;;;;;;6310697;28;20232;-56
2022/12/29 07:06:28;;;;;;;2.93;2.93;;;10.60;1.00;;;;;;6301445;28;20779;-57
2022/12/29 07:09:31;;;;;;;2.97;2.97;;;10.60;1.00;;;;;;6293763;27;20253;-56
2022/12/29 07:12:36;;;;;;;2.83;2.83;;;10.60;1.00;;;;;;6294301;28;20232;-55
2022/12/29 07:15:39;;;;;;;2.90;2.70;;;10.60;1.00;;;;;;6304025;28;20758;-56
2022/12/29 07:18:43;;;;;;;3.10;3.00;;;10.60;1.00;;;;;;6295244;28;20634;-55
2022/12/29 07:21:46;;;;;;;3.97;3.57;;;10.60;1.00;;;;;;6287865;28;20225;-57
2022/12/29 07:24:49;;;;;;;3.30;3.10;;;10.60;1.00;;;;;;6284599;28;20483;-56
2022/12/29 07:27:54;;;;;;;3.40;3.20;;;10.60;1.00;;;;;;6285096;28;20268;-56
2022/12/29 07:30:57;;;;;;;3.00;3.00;;;10.60;1.00;;;;;;6302209;28;20319;-55
2022/12/29 07:34:00;;;;;;;3.57;3.37;;;10.60;1.00;;;;;;6292041;28;20251;-55
2022/12/29 07:37:03;;;;;;;3.63;3.40;;;10.60;1.00;;;;;;6293805;27;20737;-56
2022/12/29 07:40:07;;;;;;;2.97;2.93;;;10.50;1.00;;;;;;6283539;28;20802;-55
2022/12/29 07:43:12;;;;;;;3.30;3.30;;;10.50;1.00;;;;;;6290613;28;20241;-56
2022/12/29 07:46:15;;;;;;;3.00;3.00;;;10.50;1.00;;;;;;6287283;28;20243;-56
2022/12/29 07:49:37;;;;;;;2.83;2.73;;;10.50;1.00;;;;;;6293108;28;20470;-56
2022/12/29 07:52:41;;;;;;;2.93;2.93;;;10.50;1.00;;;;;;6294607;28;20274;-55
2022/12/29 07:55:44;;;;;;;3.13;3.03;;;10.50;1.00;;;;;;6307677;28;20228;-54
2022/12/29 07:58:48;;;;;;;3.70;3.40;;;10.50;1.00;;;;;;6305374;28;20307;-55
2022/12/29 08:01:51;;;;;;;3.07;2.97;;;10.50;1.00;;;;;;6304981;28;20237;-56
2022/12/29 08:04:54;;;;;;;3.30;3.20;;;10.50;1.00;;;;;;6283977;28;20242;-56
2022/12/29 08:07:57;;;;;;;3.43;3.33;;;10.60;1.00;;;;;;6284501;28;20276;-56
2022/12/29 08:11:00;;;;;;;3.00;2.90;;;10.60;1.00;;;;;;6296579;28;20237;-56
2022/12/29 08:14:05;;;;;;;3.60;3.30;;;10.70;1.00;;;;;;6296850;28;20241;-55
2022/12/29 08:17:08;;;;;;;3.93;3.83;;;10.70;1.00;;;;;;6305683;28;20666;-55
2022/12/29 08:20:11;;;;;;;4.40;4.17;;;10.70;1.00;;;;;;6299040;28;20233;-56
2022/12/29 08:23:14;;;;;;;3.87;3.67;;;10.70;1.00;;;;;;6291669;28;20743;-55
2022/12/29 08:26:17;;;;;;;3.70;3.50;;;10.70;1.00;;;;;;6283763;28;20267;-56
2022/12/29 08:29:22;;;;;;;3.47;3.30;;;10.70;1.00;;;;;;6286751;28;20249;-56
2022/12/29 08:32:26;;;;;;;3.77;3.67;;;10.80;1.00;;;;;;6305187;28;20321;-55
2022/12/29 08:35:29;;;;;;;3.40;3.30;;;10.80;1.00;;;;;;6285164;28;20245;-55
2022/12/29 08:38:32;;;;;;;3.17;3.17;;;10.70;1.00;;;;;;6304304;28;20751;-57
2022/12/29 08:41:35;;;;;;;3.27;3.13;;;10.70;1.00;;;;;;6306138;28;20253;-57
2022/12/29 08:44:40;;;;;;;3.70;3.50;;;10.70;1.00;;;;;;6303376;28;20391;-57
2022/12/29 08:47:43;;;;;;;3.53;3.43;;;10.70;1.00;;;;;;6300051;28;20278;-57
2022/12/29 08:50:46;;;;;;;3.20;3.10;;;10.80;1.00;;;;;;6303920;27;20232;-57
2022/12/29 08:53:50;;;;;;;3.93;3.63;;;10.80;1.00;;;;;;6299029;28;20236;-56
2022/12/29 08:56:53;;;;;;;3.33;3.23;;;10.70;1.00;;;;;;6285240;28;20272;-57
2022/12/29 08:59:57;;;;;;;3.53;3.43;;;10.80;1.00;;;;;;6280861;28;20336;-56
2022/12/29 09:03:00;;;;;;;3.77;3.50;;;10.90;1.00;;;;;;6281282;28;20236;-54
2022/12/29 09:06:04;;;;;;;3.57;3.47;;;10.90;1.00;;;;;;6289377;28;20243;-56
2022/12/29 09:09:07;;;;;;;3.10;3.10;;;11.00;1.00;;;;;;6282731;28;20246;-56
2022/12/29 09:12:10;;;;;;;3.83;3.63;;;11.00;1.00;;;;;;6300595;28;20866;-57
2022/12/29 09:15:15;;;;;;;3.80;3.60;;;11.10;1.00;;;;;;6308641;28;20249;-58
2022/12/29 09:18:18;;;;;;;3.57;3.37;;;11.00;1.00;;;;;;6291744;28;20765;-56
2022/12/29 09:21:23;;;;;;;3.33;3.33;;;11.00;1.00;;;;;;6287338;28;20228;-56
2022/12/29 09:24:26;;;;;;;3.03;3.00;;;11.10;1.00;;;;;;6306011;28;20244;-57
2022/12/29 09:27:29;;;;;;;2.93;2.83;;;11.20;1.00;;;;;;6289891;28;20233;-60
2022/12/29 09:30:34;;;;;;;3.03;3.00;;;11.30;1.00;;;;;;6294702;28;20236;-56
2022/12/29 09:33:37;;;;;;;5.00;3.80;;;11.40;1.00;;;;;;6293351;28;20233;-56
2022/12/29 09:36:40;;;;;;;3.37;3.13;;;11.50;1.00;;;;;;6299493;28;20733;-57
2022/12/29 09:39:43;;;;;;;3.37;3.20;;;11.50;1.00;;;;;;6283611;28;20615;-57
2022/12/29 09:43:44;;;;;;;3.63;3.43;;;11.40;1.00;;;;;;6306496;28;20460;-55
2022/12/29 09:46:51;;;;;;;3.33;3.30;;;11.40;1.00;;;;;;6285598;28;20225;-55
2022/12/29 09:49:57;;;;;;;3.13;3.03;;;11.30;1.00;;;;;;6291926;28;20240;-57
2022/12/29 09:53:05;;;;;;;3.40;3.30;;;11.40;1.00;;;;;;6284721;28;20229;-57
2022/12/29 09:56:16;;;;;;;3.43;3.33;;;11.40;1.00;;;;;;6265880;28;20245;-54
2022/12/29 09:59:21;;;;;;;3.50;3.20;;;11.50;1.00;;;;;;6286983;28;20358;-55
2022/12/29 10:02:38;;;;;;;3.47;3.37;;;11.60;1.00;;;;;;6293505;28;20319;-56
2022/12/29 10:05:51;;;;;;;3.07;2.97;;;11.70;1.00;;;;;;6291339;28;20225;-55
2022/12/29 10:09:02;;;;;;;3.47;3.00;;;11.80;1.00;;;;;;6305238;28;20229;-55
2022/12/29 10:12:19;;;;;;;2.73;2.73;;;11.80;1.00;;;;;;6302873;28;20231;-55
2022/12/29 10:15:35;;;;;;;2.93;2.83;;;11.70;1.00;;;;;;6290105;28;20268;-57
2022/12/29 10:19:07;;;;;;;3.77;3.57;;;11.70;1.00;;;;;;6303673;28;20475;-56
2022/12/29 10:22:22;;;;;;;2.90;2.80;;;11.80;1.00;;;;;;6283311;28;20229;-57
2022/12/29 10:25:27;;;;;;;3.07;2.97;;;11.80;1.00;;;;;;6287705;28;20367;-55
2022/12/29 10:28:38;;;;;;;2.83;2.73;;;11.90;1.00;;;;;;6283682;28;20390;-56
2022/12/29 10:31:44;;;;;;;2.70;2.70;;;12.10;1.00;;;;;;6282078;28;20263;-57
2022/12/29 10:34:53;;;;;;;2.90;2.80;;;12.30;1.00;;;;;;6287317;28;20244;-56
2022/12/29 10:38:02;;;;;;;3.27;2.97;;;12.40;1.00;;;;;;6300180;28;20231;-57
2022/12/29 10:41:14;;;;;;;2.67;2.60;;;12.60;1.00;;;;;;6299834;28;20229;-57
2022/12/29 10:44:19;;;;;;;3.40;3.20;;;12.70;1.00;;;;;;6292272;28;20745;-56
2022/12/29 10:47:26;;;;;;;2.70;2.70;;;12.80;1.00;;;;;;6286095;28;20248;-54
2022/12/29 10:50:30;;;;;;;2.90;2.80;;;12.80;1.00;;;;;;6300054;28;20275;-54
2022/12/29 10:53:39;;;;;;;3.40;3.20;;;12.80;1.00;;;;;;6302163;28;20388;-55
2022/12/29 10:56:44;;;;;;;3.13;2.90;;;12.90;1.00;;;;;;6279435;28;20241;-57
2022/12/29 10:59:47;;;;;;;3.00;2.90;;;12.80;1.00;;;;;;6281416;28;20247;-55
2022/12/29 11:03:11;;;;;;;2.60;2.50;;;12.70;1.00;;;;;;6293377;28;20232;-55
2022/12/29 11:06:23;;;;;;;3.20;3.10;;;12.70;1.00;;;;;;6303394;28;20229;-55
2022/12/29 11:09:29;;;;;;;3.33;3.23;;;12.70;1.00;;;;;;6307136;28;20475;-56
2022/12/29 11:12:57;;;;;;;2.97;2.97;;;12.70;1.00;;;;;;6300274;28;20229;-56
2022/12/29 11:16:02;;;;;;;3.30;3.20;;;12.80;1.00;;;;;;6311140;28;20233;-55
2022/12/29 11:19:06;;;;;;;3.17;2.90;;;12.70;1.00;;;;;;6304334;28;20245;-55
2022/12/29 11:22:21;;;;;;;2.73;2.63;;;12.60;1.00;;;;;;6289102;28;20229;-56
2022/12/29 11:25:24;;;;;;;3.13;3.03;;;12.60;1.00;;;;;;6313993;28;20718;-56
2022/12/29 11:28:30;;;;;;;3.17;2.87;;;12.60;1.00;;;;;;6311142;28;20616;-56
2022/12/29 11:31:41;;;;;;;2.70;2.70;;;12.50;1.00;;;;;;6304028;27;20247;-56
2022/12/29 11:34:44;;;;;;;2.73;2.70;;;12.60;1.00;;;;;;6287701;28;20233;-58
2022/12/29 11:37:58;;;;;;;2.87;2.77;;;12.50;1.00;;;;;;6305119;28;20237;-55
2022/12/29 11:41:02;;;;;;;2.70;2.70;;;12.50;1.00;;;;;;6303224;28;20383;-53
2022/12/29 11:44:07;;;;;;;2.93;2.90;;;12.50;1.00;;;;;;6287515;28;20233;-55
2022/12/29 11:47:20;;;;;;;2.90;2.70;;;12.40;1.00;;;;;;6290046;28;20705;-56
2022/12/29 11:50:27;;;;;;;2.50;2.50;;;12.30;1.00;;;;;;6298121;28;20389;-56
2022/12/29 11:53:39;;;;;;;2.90;2.70;;;12.20;1.00;;;;;;6305330;28;20398;-56
2022/12/29 11:56:44;;;;;;;2.60;2.60;;;12.10;1.00;;;;;;6308102;28;20255;-55
2022/12/29 11:59:51;;;;;;;2.77;2.77;;;12.10;1.00;;;;;;6308667;28;20240;-55
2022/12/29 12:02:59;;;;;;;2.50;2.50;;;12.00;1.00;;;;;;6294527;28;20287;-55
2022/12/29 12:06:03;;;;;;;2.30;2.30;;;11.90;1.00;;;;;;6290976;28;20318;-56
2022/12/29 12:09:15;;;;;;;2.53;2.53;;;11.80;1.00;;;;;;6294597;28;20263;-57
2022/12/29 12:12:25;;;;;;;2.50;2.50;;;11.70;1.00;;;;;;6300372;28;20229;-55
2022/12/29 12:15:32;;;;;;;2.50;2.40;;;11.60;1.00;;;;;;6310358;28;20736;-56
2022/12/29 12:18:42;;;;;;;2.80;2.70;;;11.50;1.00;;;;;;6295470;28;20751;-56
2022/12/29 12:21:51;;;;;;;2.30;2.20;;;11.30;1.00;;;;;;6294828;28;20240;-57
2022/12/29 12:25:00;;;;;;;2.83;2.63;;;11.10;1.00;;;;;;6284333;28;20629;-55
2022/12/29 12:28:10;;;;;;;2.40;2.20;;;11.00;1.00;;;;;;6305207;28;20268;-57
2022/12/29 12:31:27;;;;;;;2.57;2.57;;;10.90;1.00;;;;;;6295586;28;20257;-55
2022/12/29 12:34:37;;;;;;;2.77;2.67;;;10.90;1.00;;;;;;6286819;28;20543;-55
2022/12/29 12:38:07;;;;;;;2.80;2.70;;;10.80;1.00;;;;;;6289239;28;20737;-55
2022/12/29 12:41:14;;;;;;;2.80;2.70;;;10.80;1.00;;;;;;6301479;28;20731;-55
2022/12/29 12:44:30;;;;;;;2.83;2.73;;;10.80;1.00;;;;;;6308848;28;20272;-54
2022/12/29 12:47:51;;;;;;;2.93;2.83;;;10.70;1.00;;;;;;6278205;28;20245;-55
2022/12/29 12:51:02;;;;;;;3.10;3.10;;;10.70;1.00;;;;;;6303634;28;20236;-56
2022/12/29 12:54:25;;;;;;;3.00;2.90;;;10.70;1.00;;;;;;6295891;28;20312;-55
2022/12/29 12:57:41;;;;;;;2.90;2.90;;;10.70;1.00;;;;;;6291673;28;20740;-56
2022/12/29 13:00:58;;;;;;;2.90;2.90;;;10.70;1.00;;;;;;6284166;28;20237;-57
2022/12/29 13:04:18;;;;;;;3.03;2.93;;;10.70;1.00;;;;;;6279473;28;20224;-56
2022/12/29 13:07:32;;;;;;;2.60;2.50;;;10.60;1.00;;;;;;6301197;28;20244;-56
2022/12/29 13:10:43;;;;;;;2.43;2.43;;;10.60;1.00;;;;;;6285343;28;20736;-55
2022/12/29 13:14:22;;;;;;;2.70;2.57;;;10.60;1.00;;;;;;6292965;28;20229;-55
2022/12/29 13:17:31;;;;;;;2.53;2.50;;;10.50;1.00;;;;;;6307179;28;20232;-55
2022/12/29 13:20:43;;;;;;;3.43;3.33;;;10.60;1.00;;;;;;6289378;28;20321;-54
2022/12/29 13:23:53;;;;;;;2.90;2.80;;;10.60;1.00;;;;;;6292394;28;20257;-56
2022/12/29 13:27:03;;;;;;;3.27;3.13;;;10.70;1.00;;;;;;6283661;28;20714;-57
2022/12/29 13:30:12;;;;;;;3.37;3.27;;;10.70;1.00;;;;;;6283842;28;20272;-58
2022/12/29 13:33:23;;;;;;;2.97;2.87;;;10.70;1.00;;;;;;6304368;28;20324;-56
2022/12/29 13:36:31;;;;;;;2.93;2.83;;;10.70;1.00;;;;;;6281259;28;20712;-56
2022/12/29 13:39:37;;;;;;;3.10;2.90;;;10.70;1.00;;;;;;6288907;28;20494;-56
2022/12/29 13:42:41;;;;;;;2.77;2.67;;;10.70;1.00;;;;;;6283279;28;20263;-56
2022/12/29 13:45:51;;;;;;;2.60;2.60;;;10.70;1.00;;;;;;6300673;28;20373;-56
2022/12/29 13:48:57;;;;;;;4.00;3.13;;;10.70;1.00;;;;;;6299662;28;20236;-55
2022/12/29 13:52:10;;;;;;;3.30;3.10;;;10.70;1.00;;;;;;6293336;28;20256;-56
2022/12/29 13:55:25;;;;;;;3.10;2.90;;;10.70;1.00;;;;;;6307675;28;20700;-55
2022/12/29 13:58:34;;;;;;;3.17;3.17;;;10.80;1.00;;;;;;6291829;28;20472;-55
2022/12/29 14:01:46;;;;;;;3.13;3.03;;;10.80;1.00;;;;;;6297046;28;20245;-55
2022/12/29 14:04:59;;;;;;;3.03;3.03;;;10.80;1.00;;;;;;6279930;28;20569;-56
2022/12/29 14:08:05;;;;;;;3.43;3.33;;;10.80;1.00;;;;;;6300462;28;20245;-55
2022/12/29 14:11:10;;;;;;;4.17;3.90;;;10.80;1.00;;;;;;6286233;28;20239;-55
2022/12/29 14:14:20;;;;;;;4.87;4.57;;;10.70;1.00;;;;;;6297208;28;20476;-55
2022/12/29 14:17:24;;;;;;;4.07;3.87;;;10.80;1.00;;;;;;6303803;28;20237;-54
2022/12/29 14:20:28;;;;;;;3.70;3.60;;;10.70;1.00;;;;;;6300431;28;20241;-55
2022/12/29 14:23:39;;;;;;;3.43;3.33;;;10.70;1.00;;;;;;6292816;28;20243;-56
2022/12/29 14:26:42;;;;;;;3.40;3.30;;;10.60;1.00;;;;;;6283277;28;20498;-55
2022/12/29 14:29:46;;;;;;;3.50;3.30;;;10.60;1.00;;;;;;6292084;28;20245;-55
2022/12/29 14:33:08;;;;;;;3.40;3.27;;;10.60;1.00;;;;;;6284786;28;20607;-55
2022/12/29 14:36:33;;;;;;;4.07;3.93;;;10.50;1.00;;;;;;6303662;28;20521;-56
2022/12/29 14:39:39;;;;;;;4.53;4.23;;;10.60;1.00;;;;;;6303111;28;20239;-55
2022/12/29 14:42:43;;;;;;;3.60;3.50;;;10.50;1.00;;;;;;6300605;28;20240;-55
2022/12/29 14:45:55;;;;;;;3.83;3.63;;;10.50;1.00;;;;;;6305161;28;20359;-56
2022/12/29 14:49:00;;;;;;;3.40;3.30;;;10.50;1.00;;;;;;6287732;28;20807;-55
2022/12/29 14:52:15;;;;;;;3.47;3.37;;;10.50;1.00;;;;;;6281758;28;20233;-55
2022/12/29 14:55:39;;;;;;;3.07;2.87;;;10.50;1.00;;;;;;6306500;28;20748;-55
2022/12/29 14:58:50;;;;;;;3.67;3.57;;;10.50;1.00;;;;;;6301062;28;20252;-56
2022/12/29 15:01:57;;;;;;;3.80;3.60;;;10.60;1.00;;;;;;6308315;28;20228;-55
2022/12/29 15:05:04;;;;;;;4.10;3.90;;;10.50;1.00;;;;;;6298150;28;20241;-56
2022/12/29 15:08:08;;;;;;;3.70;3.60;;;10.50;1.00;;;;;;6307027;28;20313;-57
2022/12/29 15:11:14;;;;;;;3.60;3.27;;;10.60;1.00;;;;;;6292969;28;20248;-56
2022/12/29 15:14:33;;;;;;;3.70;3.50;;;10.50;1.00;;;;;;6300672;28;20238;-55
2022/12/29 15:17:38;;;;;;;3.50;3.40;;;10.50;1.00;;;;;;6295866;28;20236;-54
2022/12/29 15:20:43;;;;;;;3.33;3.23;;;10.50;1.00;;;;;;6300982;28;20294;-55
2022/12/29 15:23:47;;;;;;;3.53;3.33;;;10.60;1.00;;;;;;6307190;28;20233;-54
2022/12/29 15:26:52;;;;;;;4.03;3.90;;;10.50;1.00;;;;;;6307242;28;20501;-55
2022/12/29 15:30:01;;;;;;;3.70;3.60;;;10.50;1.00;;;;;;6313351;28;20241;-53
2022/12/29 15:33:19;;;;;;;3.87;3.67;;;10.50;1.00;;;;;;6291949;28;20448;-55
2022/12/29 15:36:26;;;;;;;4.10;3.70;;;10.40;1.00;;;;;;6304467;28;20244;-57
2022/12/29 15:39:30;;;;;;;3.87;3.60;;;10.30;1.00;;;;;;6307084;28;20244;-56
2022/12/29 15:42:49;;;;;;;4.13;3.93;;;10.20;1.00;;;;;;6298732;28;20244;-55
2022/12/29 15:45:54;;;;;;;8.20;4.50;;;10.10;1.00;;;;;;6284742;28;20241;-55
2022/12/29 15:48:58;;;;;;;4.00;3.90;;;10.00;1.00;;;;;;6298712;28;20477;-55
2022/12/29 15:52:07;;;;;;;5.30;4.90;;;9.90;1.00;;;;;;6287387;28;20222;-56
2022/12/29 15:55:20;;;;;;;4.73;4.53;;;9.90;1.00;;;;;;6293861;28;20518;-56
2022/12/29 15:58:26;;;;;;;5.23;4.83;;;9.90;1.00;;;;;;6306353;28;20237;-54
2022/12/29 16:01:32;;;;;;;4.90;4.70;;;9.90;1.00;;;;;;6289614;28;20383;-55
2022/12/29 16:04:35;;;;;;;5.97;5.30;;;9.80;1.00;;;;;;6281268;28;20740;-55
2022/12/29 16:08:01;;;;;;;5.43;5.03;;;9.80;1.00;;;;;;6294680;27;20240;-55
2022/12/29 16:11:08;;;;;;;5.33;4.93;;;9.80;1.00;;;;;;6272500;28;20512;-55
2022/12/29 16:14:17;;;;;;;4.80;4.43;;;9.80;1.00;;;;;;6307592;28;20611;-55
2022/12/29 16:17:23;;;;;;;4.57;4.30;;;9.80;1.00;;;;;;6305446;28;20241;-55
2022/12/29 16:20:35;;;;;;;5.97;5.57;;;9.90;1.00;;;;;;6297365;28;20228;-56
2022/12/29 16:23:40;;;;;;;5.27;4.87;;;9.90;1.00;;;;;;6281444;28;20244;-55
2022/12/29 16:26:48;;;;;;;4.27;4.07;;;10.00;1.00;;;;;;6297812;28;20802;-57
2022/12/29 16:29:55;;;;;;;15.30;13.80;;;9.90;1.00;;;;;;6304082;28;20237;-55
2022/12/29 16:33:00;;;;;;;5.90;5.40;;;9.90;1.00;;;;;;6299475;28;20901;-55
2022/12/29 16:36:22;;;;;;;4.83;4.43;;;10.00;1.00;;;;;;6306939;27;20236;-56
2022/12/29 16:39:33;;;;;;;4.47;4.20;;;10.00;1.00;;;;;;6305640;28;20581;-56
2022/12/29 16:42:45;;;;;;;5.23;5.03;;;9.90;1.00;;;;;;6280345;28;20229;-55
2022/12/29 16:46:20;;;;;;;5.20;4.90;;;9.90;1.00;;;;;;6292788;28;20238;-55
2022/12/29 16:49:23;;;;;;;4.67;4.27;;;9.90;1.00;;;;;;6293719;28;20685;-55
2022/12/29 16:52:31;;;;;;;4.10;3.80;;;10.00;1.00;;;;;;6280457;28;20237;-56
2022/12/29 16:55:36;;;;;;;3.73;3.63;;;9.90;1.00;;;;;;6288606;28;20330;-55
2022/12/29 16:58:39;;;;;;;4.50;4.20;;;10.00;1.00;;;;;;6304384;28;20241;-55
2022/12/29 17:01:47;;;;;;;4.77;4.57;;;9.90;1.00;;;;;;6301875;28;20730;-55
2022/12/29 17:04:51;;;;;;;6.07;4.57;;;10.00;1.00;;;;;;6298948;28;20616;-55
2022/12/29 17:08:00;;;;;;;3.60;3.50;;;10.00;1.00;;;;;;6300824;28;20792;-56
2022/12/29 17:14:45;;;;;;;3.53;3.43;;;10.00;1.00;;;;;;6286065;28;20771;-55